Time;durP1;ratioP1;P1;durP2;ratioP2;P2;SDS_P1;SDS_P2;PMS_P1;PMS_P2;Temp;Humidity;BMP_temperature;BMP_pressure;BME280_temperature;BME280_humidity;BME280_pressure;Samples;Min_cycle;Max_cycle;Signal;HPM_P1;HPM_P2
2022/01/11 00:00:10;;;;;;;7.07;0.60;;;;;;;6.54;100.00;101774.91;5030028;28;20025;-49
2022/01/11 00:02:40;;;;;;;2.63;1.30;;;;;;;6.55;100.00;101781.00;5039471;28;20341;-48
2022/01/11 00:05:06;;;;;;;3.03;0.55;;;;;;;6.56;100.00;101777.41;5035168;28;20044;-49
2022/01/11 00:07:33;;;;;;;2.80;1.20;;;;;;;6.57;100.00;101784.34;5020696;28;20033;-49
2022/01/11 00:10:00;;;;;;;2.00;0.20;;;;;;;6.59;100.00;101792.13;5035390;28;20406;-50
2022/01/11 00:12:26;;;;;;;2.97;0.88;;;;;;;6.58;100.00;101790.44;5039361;28;20402;-50
2022/01/11 00:14:51;;;;;;;1.58;0.47;;;;;;;6.57;100.00;101797.53;5034650;28;20048;-49
2022/01/11 00:17:16;;;;;;;0.73;0.35;;;;;;;6.57;100.00;101794.06;5038047;28;20029;-52
2022/01/11 00:19:43;;;;;;;4.20;1.00;;;;;;;6.57;100.00;101796.69;5034347;28;20036;-51
2022/01/11 00:22:16;;;;;;;2.45;0.90;;;;;;;6.55;100.00;101802.09;5033532;28;20029;-49
2022/01/11 00:24:41;;;;;;;0.93;0.52;;;;;;;6.56;100.00;101809.03;5029736;28;20120;-52
2022/01/11 00:27:09;;;;;;;2.13;0.77;;;;;;;6.57;100.00;101805.44;5037717;28;20821;-50
2022/01/11 00:29:39;;;;;;;1.58;1.20;;;;;;;6.56;100.00;101809.03;5037894;28;20065;-51
2022/01/11 00:32:09;;;;;;;2.20;0.70;;;;;;;6.54;100.00;101803.88;5035259;28;20040;-52
2022/01/11 00:34:49;;;;;;;2.05;0.55;;;;;;;6.54;100.00;101803.88;5035363;28;20205;-50
2022/01/11 00:37:16;;;;;;;1.33;0.85;;;;;;;6.56;100.00;101803.78;5038246;28;20048;-50
2022/01/11 00:39:42;;;;;;;2.67;0.80;;;;;;;6.55;100.00;101802.09;5039383;28;20630;-53
2022/01/11 00:42:09;;;;;;;3.88;0.65;;;;;;;6.57;100.00;101805.44;5037366;28;20440;-49
2022/01/11 00:44:34;;;;;;;1.67;0.68;;;;;;;6.57;100.00;101804.59;5042979;28;20100;-53
2022/01/11 00:47:00;;;;;;;4.45;0.93;;;;;;;6.58;100.00;101807.09;5040042;28;20029;-50
2022/01/11 00:49:25;;;;;;;1.63;0.85;;;;;;;6.58;100.00;101804.44;5043894;28;20029;-53
2022/01/11 00:51:51;;;;;;;2.00;0.60;;;;;;;6.58;100.00;101812.34;5032801;28;20076;-52
2022/01/11 00:54:16;;;;;;;2.47;0.77;;;;;;;6.59;100.00;101803.50;5038382;28;20478;-50
2022/01/11 00:56:41;;;;;;;1.08;0.70;;;;;;;6.59;100.00;101806.13;5037823;28;20036;-51
2022/01/11 00:59:07;;;;;;;1.27;0.93;;;;;;;6.59;100.00;101800.03;5044308;28;20136;-51
2022/01/11 01:01:37;;;;;;;0.68;0.68;;;;;;;6.59;100.00;101798.22;5037370;28;20039;-53
2022/01/11 01:04:04;;;;;;;1.42;1.33;;;;;;;6.60;100.00;101802.53;5043362;28;20056;-52
2022/01/11 01:06:29;;;;;;;1.73;0.40;;;;;;;6.62;100.00;101800.59;5037357;28;20067;-53
2022/01/11 01:08:55;;;;;;;1.88;0.85;;;;;;;6.63;100.00;101799.63;5042885;28;20103;-52
2022/01/11 01:11:20;;;;;;;0.68;0.50;;;;;;;6.65;100.00;101791.59;5038519;28;20071;-50
2022/01/11 01:13:45;;;;;;;2.05;0.70;;;;;;;6.66;100.00;101796.75;5040894;28;20040;-51
2022/01/11 01:16:11;;;;;;;0.63;0.63;;;;;;;6.65;100.00;101792.41;5037790;28;20027;-50
2022/01/11 01:18:36;;;;;;;2.90;0.57;;;;;;;6.66;100.00;101793.25;5039406;28;20386;-48
2022/01/11 01:21:03;;;;;;;1.20;0.95;;;;;;;6.64;100.00;101787.28;5046117;28;20029;-51
2022/01/11 01:23:29;;;;;;;1.10;0.60;;;;;;;6.63;100.00;101788.25;5039601;28;20048;-47
2022/01/11 01:25:55;;;;;;;3.78;0.40;;;;;;;6.63;100.00;101794.34;5036525;28;20029;-50
2022/01/11 01:28:21;;;;;;;2.60;0.60;;;;;;;6.68;100.00;101800.06;5042103;28;20037;-49
2022/01/11 01:30:47;;;;;;;1.92;0.40;;;;;;;6.73;100.00;101808.38;5027833;28;20086;-50
2022/01/11 01:33:13;;;;;;;1.15;0.75;;;;;;;6.71;100.00;101815.63;5041920;28;20175;-50
2022/01/11 01:35:39;;;;;;;1.02;0.88;;;;;;;6.71;100.00;101813.00;5035332;28;20490;-47
2022/01/11 01:38:07;;;;;;;3.58;0.93;;;;;;;6.72;100.00;101814.66;5043154;28;20711;-47
2022/01/11 01:40:41;;;;;;;0.50;0.50;;;;;;;6.72;100.00;101814.66;5034474;28;20026;-48
2022/01/11 01:43:12;;;;;;;1.23;0.77;;;;;;;6.76;100.00;101815.19;5039509;28;20033;-48
2022/01/11 01:45:38;;;;;;;0.47;0.45;;;;;;;6.76;100.00;101813.41;5036718;28;20032;-46
2022/01/11 01:48:06;;;;;;;6.03;0.57;;;;;;;6.75;100.00;101818.81;5036003;28;20140;-49
2022/01/11 01:50:32;;;;;;;0.82;0.73;;;;;;;6.74;100.00;101820.63;5041500;28;20036;-50
2022/01/11 01:53:01;;;;;;;0.55;0.55;;;;;;;6.76;100.00;101823.09;5039399;28;20037;-50
2022/01/11 01:55:26;;;;;;;2.13;1.42;;;;;;;6.75;100.00;101822.28;5037273;28;20478;-46
2022/01/11 01:57:52;;;;;;;1.10;0.80;;;;;;;6.78;100.00;101819.38;5039212;28;20079;-53
2022/01/11 02:00:20;;;;;;;1.98;0.52;;;;;;;6.79;100.00;101825.50;5039618;28;20061;-48
2022/01/11 02:02:46;;;;;;;1.02;0.55;;;;;;;6.77;100.00;101827.44;5033584;28;20159;-52
2022/01/11 02:05:12;;;;;;;2.47;0.93;;;;;;;6.77;100.00;101824.78;5038691;28;20517;-47
2022/01/11 02:07:37;;;;;;;3.80;1.15;;;;;;;6.77;100.00;101828.25;5034368;28;20029;-51
2022/01/11 02:10:05;;;;;;;2.05;0.68;;;;;;;6.80;100.00;101826.34;5033039;28;20067;-51
2022/01/11 02:12:31;;;;;;;3.22;1.50;;;;;;;6.79;100.00;101833.41;5035532;28;20405;-47
2022/01/11 02:14:57;;;;;;;3.40;1.23;;;;;;;6.77;100.00;101822.16;5037652;28;20522;-46
2022/01/11 02:17:26;;;;;;;3.72;1.13;;;;;;;6.78;100.00;101823.81;5043011;28;20371;-49
2022/01/11 02:19:54;;;;;;;2.53;1.85;;;;;;;6.76;100.00;101820.47;5032887;28;20112;-49
2022/01/11 02:22:19;;;;;;;1.42;0.80;;;;;;;6.77;100.00;101820.34;5041724;28;20138;-50
2022/01/11 02:24:45;;;;;;;1.85;1.30;;;;;;;6.80;100.00;101832.44;5010263;28;20033;-48
2022/01/11 02:27:10;;;;;;;3.92;0.75;;;;;;;6.79;100.00;101825.50;5039131;28;20120;-52
2022/01/11 02:29:37;;;;;;;0.95;0.65;;;;;;;6.82;100.00;101821.78;5041028;28;20077;-49
2022/01/11 02:32:02;;;;;;;1.02;0.82;;;;;;;6.81;100.00;101825.34;5037109;28;20123;-47
2022/01/11 02:34:28;;;;;;;2.35;0.75;;;;;;;6.84;100.00;101822.44;5038460;28;20176;-50
2022/01/11 02:36:53;;;;;;;1.70;1.23;;;;;;;6.82;100.00;101819.13;5034535;28;20028;-53
2022/01/11 02:39:18;;;;;;;1.17;0.85;;;;;;;6.80;100.00;101824.53;5036380;28;20056;-52
2022/01/11 02:41:56;;;;;;;1.65;0.80;;;;;;;6.81;100.00;101828.00;5035959;28;20025;-53
2022/01/11 02:44:21;;;;;;;1.48;0.70;;;;;;;6.80;100.00;101829.78;5034014;28;20057;-53
2022/01/11 02:46:47;;;;;;;1.98;0.52;;;;;;;6.80;100.00;101831.59;5040656;28;20068;-49
2022/01/11 02:49:12;;;;;;;2.50;0.60;;;;;;;6.81;100.00;101830.63;5041467;28;20033;-47
2022/01/11 02:51:38;;;;;;;3.95;0.80;;;;;;;6.83;100.00;101826.06;5033769;28;20068;-48
2022/01/11 02:54:05;;;;;;;2.72;0.77;;;;;;;6.84;100.00;101831.22;5038145;28;20489;-51
2022/01/11 02:56:30;;;;;;;0.73;0.43;;;;;;;6.84;100.00;101830.34;5022749;28;20040;-53
2022/01/11 02:58:56;;;;;;;1.27;0.60;;;;;;;6.86;100.00;101834.53;5039900;28;20421;-47
2022/01/11 03:01:21;;;;;;;2.05;1.75;;;;;;;6.87;100.00;101833.56;5036162;28;20032;-49
2022/01/11 03:03:47;;;;;;;2.55;1.45;;;;;;;6.87;100.00;101832.75;5038811;28;20489;-53
2022/01/11 03:06:13;;;;;;;2.58;0.63;;;;;;;6.85;100.00;101832.03;5040260;28;20032;-48
2022/01/11 03:08:42;;;;;;;1.00;0.85;;;;;;;6.85;100.00;101829.41;5040146;28;20033;-52
2022/01/11 03:11:09;;;;;;;1.15;0.70;;;;;;;6.85;100.00;101829.41;5035330;28;20067;-52
2022/01/11 03:13:35;;;;;;;4.38;2.50;;;;;;;6.86;100.00;101831.06;5031145;28;20326;-49
2022/01/11 03:16:02;;;;;;;3.50;1.05;;;;;;;6.86;100.00;101838.97;5040495;28;20501;-52
2022/01/11 03:18:28;;;;;;;2.75;1.27;;;;;;;6.86;100.00;101837.16;5038761;28;20097;-47
2022/01/11 03:20:53;;;;;;;1.40;0.75;;;;;;;6.89;100.00;101841.34;5037236;28;20029;-50
2022/01/11 03:23:20;;;;;;;10.23;1.27;;;;;;;6.88;100.00;101845.78;5038903;28;20444;-51
2022/01/11 03:25:47;;;;;;;0.77;0.77;;;;;;;6.87;100.00;101851.19;5033397;28;20030;-50
2022/01/11 03:28:13;;;;;;;1.40;0.43;;;;;;;6.90;100.00;101853.56;5033445;28;20052;-52
2022/01/11 03:30:39;;;;;;;0.65;0.40;;;;;;;6.89;100.00;101854.50;5033393;28;20037;-48
2022/01/11 03:33:08;;;;;;;1.58;0.75;;;;;;;6.87;100.00;101867.03;5037190;28;20049;-49
2022/01/11 03:35:34;;;;;;;3.13;0.63;;;;;;;6.90;100.00;101874.66;5037823;28;20044;-49
2022/01/11 03:38:00;;;;;;;1.23;1.05;;;;;;;6.92;100.00;101864.81;5032330;28;20033;-50
2022/01/11 03:40:26;;;;;;;1.35;0.80;;;;;;;6.92;100.00;101865.66;5021764;28;20401;-49
2022/01/11 03:42:53;;;;;;;1.00;0.38;;;;;;;6.92;100.00;101872.72;5037061;28;20021;-48
2022/01/11 03:45:22;;;;;;;0.30;0.30;;;;;;;6.94;100.00;101886.59;5040643;28;20065;-51
2022/01/11 03:47:50;;;;;;;0.32;0.10;;;;;;;6.96;100.00;101888.13;5034442;28;20041;-52
2022/01/11 03:50:16;;;;;;;2.17;0.38;;;;;;;6.95;100.00;101886.47;5040656;28;20039;-52
2022/01/11 03:52:43;;;;;;;1.10;0.30;;;;;;;6.96;100.00;101889.94;5036538;28;20037;-47
2022/01/11 03:55:12;;;;;;;1.95;0.47;;;;;;;6.98;100.00;101890.66;5038377;28;20493;-49
2022/01/11 03:57:38;;;;;;;0.13;0.03;;;;;;;6.98;100.00;101893.28;5039205;28;20049;-50
2022/01/11 04:00:09;;;;;;;0.13;0.10;;;;;;;6.99;100.00;101892.31;5039360;28;20366;-51
2022/01/11 04:02:34;;;;;;;0.82;0.10;;;;;;;6.98;100.00;101899.38;5036305;28;20438;-49
2022/01/11 04:05:00;;;;;;;0.40;0.40;;;;;;;6.99;100.00;101905.50;5037371;28;20064;-47
2022/01/11 04:07:27;;;;;;;0.52;0.32;;;;;;;7.02;100.00;101907.84;5037441;28;20115;-49
2022/01/11 04:09:54;;;;;;;0.38;0.20;;;;;;;7.03;100.00;101904.28;5036961;28;20398;-50
2022/01/11 04:12:21;;;;;;;0.45;0.30;;;;;;;7.03;100.00;101904.28;5041727;28;20493;-49
2022/01/11 04:14:47;;;;;;;0.28;0.13;;;;;;;7.02;100.00;101902.56;5027446;28;20093;-52
2022/01/11 04:17:12;;;;;;;0.30;0.20;;;;;;;7.03;100.00;101898.16;5047190;28;20037;-48
2022/01/11 04:19:38;;;;;;;0.90;0.47;;;;;;;7.00;100.00;101904.53;5040207;28;20033;-49
2022/01/11 04:22:04;;;;;;;0.20;0.20;;;;;;;6.99;100.00;101898.41;5041220;28;20033;-50
2022/01/11 04:24:30;;;;;;;0.45;0.20;;;;;;;7.02;100.00;101899.94;5041058;28;20063;-46
2022/01/11 04:26:55;;;;;;;2.95;0.30;;;;;;;7.03;100.00;101906.06;5043550;28;20449;-48
2022/01/11 04:29:21;;;;;;;1.83;0.40;;;;;;;7.04;100.00;101911.19;5045225;28;20037;-50
2022/01/11 04:31:47;;;;;;;0.60;0.38;;;;;;;7.01;100.00;101911.47;5036621;28;20035;-51
2022/01/11 04:34:12;;;;;;;2.05;0.75;;;;;;;6.98;100.00;101920.47;5042730;28;20033;-49
2022/01/11 04:36:38;;;;;;;0.50;0.40;;;;;;;6.97;100.00;101918.00;5041406;28;20112;-48
2022/01/11 04:39:07;;;;;;;1.02;0.70;;;;;;;6.96;100.00;101921.59;5040893;28;20056;-49
2022/01/11 04:41:32;;;;;;;1.10;1.00;;;;;;;6.95;100.00;101920.75;5039081;28;20043;-48
2022/01/11 04:43:58;;;;;;;0.85;0.40;;;;;;;6.97;100.00;101923.28;5023107;28;20041;-54
2022/01/11 04:46:23;;;;;;;0.10;0.10;;;;;;;6.95;100.00;101928.66;5045398;28;20461;-49
2022/01/11 04:48:49;;;;;;;0.25;0.25;;;;;;;6.95;100.00;101935.75;5044092;28;20120;-48
2022/01/11 04:51:15;;;;;;;0.20;0.20;;;;;;;6.96;100.00;101937.41;5036578;28;20030;-50
2022/01/11 04:53:41;;;;;;;1.52;0.68;;;;;;;6.97;100.00;101941.72;5037291;28;20036;-46
2022/01/11 04:56:07;;;;;;;0.50;0.45;;;;;;;6.97;100.00;101936.47;5037950;28;20029;-50
2022/01/11 04:58:33;;;;;;;0.70;0.50;;;;;;;6.95;100.00;101936.56;5040062;28;20090;-50
2022/01/11 05:00:59;;;;;;;0.90;0.45;;;;;;;6.96;100.00;101938.22;5039167;28;20167;-48
2022/01/11 05:03:25;;;;;;;0.50;0.50;;;;;;;6.96;100.00;101935.59;5026531;28;20021;-49
2022/01/11 05:05:50;;;;;;;0.75;0.28;;;;;;;6.96;100.00;101934.75;5043419;28;20095;-52
2022/01/11 05:08:16;;;;;;;0.60;0.20;;;;;;;6.96;100.00;101938.22;5041596;28;20021;-50
2022/01/11 05:10:44;;;;;;;2.25;0.45;;;;;;;6.95;100.00;101943.66;5040207;28;20044;-49
2022/01/11 05:13:14;;;;;;;0.85;0.30;;;;;;;6.94;100.00;101928.78;5020712;28;20207;-47
2022/01/11 05:15:40;;;;;;;0.77;0.38;;;;;;;6.93;100.00;101927.13;5038995;28;20033;-51
2022/01/11 05:18:07;;;;;;;1.08;0.60;;;;;;;6.95;100.00;101927.84;5039309;28;20489;-49
2022/01/11 05:20:32;;;;;;;1.30;1.20;;;;;;;6.93;100.00;101922.69;5038159;28;20060;-46
2022/01/11 05:22:58;;;;;;;0.85;0.80;;;;;;;6.95;100.00;101922.56;5035861;28;20462;-52
2022/01/11 05:25:23;;;;;;;5.68;1.75;;;;;;;6.94;100.00;101924.38;5040759;28;20032;-50
2022/01/11 05:27:48;;;;;;;1.65;0.73;;;;;;;6.94;100.00;101920.88;5041365;28;20033;-51
2022/01/11 05:30:14;;;;;;;0.95;0.73;;;;;;;6.95;100.00;101925.19;5033936;28;20056;-49
2022/01/11 05:32:41;;;;;;;0.80;0.80;;;;;;;6.97;100.00;101923.28;5041307;28;20508;-46
2022/01/11 05:35:08;;;;;;;2.00;0.63;;;;;;;6.96;100.00;101922.41;5041637;28;20382;-48
2022/01/11 05:37:34;;;;;;;0.60;0.55;;;;;;;6.96;100.00;101925.03;5045332;28;20120;-48
2022/01/11 05:40:00;;;;;;;1.38;0.77;;;;;;;6.96;100.00;101932.13;5039388;28;20140;-49
2022/01/11 05:42:26;;;;;;;1.75;1.08;;;;;;;6.96;100.00;101922.41;5040628;28;20444;-49
2022/01/11 05:44:52;;;;;;;1.27;0.80;;;;;;;6.97;100.00;101931.19;5041764;28;20037;-52
2022/01/11 05:47:17;;;;;;;9.57;2.00;;;;;;;6.96;100.00;101932.13;5038338;28;20029;-49
2022/01/11 05:49:43;;;;;;;3.05;1.67;;;;;;;6.96;100.00;101934.75;5036730;28;20033;-51
2022/01/11 05:52:09;;;;;;;2.53;1.23;;;;;;;6.95;100.00;101936.56;5035693;28;20033;-51
2022/01/11 05:54:34;;;;;;;2.15;1.15;;;;;;;6.98;100.00;101940.75;5041476;28;20490;-54
2022/01/11 05:57:00;;;;;;;1.90;1.25;;;;;;;6.97;100.00;101939.09;5041766;28;20453;-52
2022/01/11 05:59:25;;;;;;;3.38;0.75;;;;;;;6.97;100.00;101945.19;5041295;28;20417;-52
2022/01/11 06:01:51;;;;;;;2.17;1.30;;;;;;;6.98;100.00;101946.84;5034613;28;20025;-51
2022/01/11 06:04:16;;;;;;;1.65;1.55;;;;;;;6.97;100.00;101949.66;5036690;28;20040;-55
2022/01/11 06:06:42;;;;;;;2.65;1.10;;;;;;;6.97;100.00;101950.47;5044754;28;20506;-55
2022/01/11 06:09:07;;;;;;;6.07;1.50;;;;;;;6.97;100.00;101950.47;5035903;28;20112;-52
2022/01/11 06:11:33;;;;;;;1.45;1.35;;;;;;;6.98;100.00;101952.13;5040384;28;20426;-52
2022/01/11 06:13:58;;;;;;;11.77;2.92;;;;;;;6.97;100.00;101960.19;5041811;28;20032;-51
2022/01/11 06:16:24;;;;;;;3.22;1.58;;;;;;;6.97;100.00;101960.19;5042377;28;20155;-48
2022/01/11 06:18:49;;;;;;;3.72;1.65;;;;;;;6.96;100.00;101959.34;5035050;28;20467;-51
2022/01/11 06:21:15;;;;;;;1.88;1.45;;;;;;;6.96;100.00;101958.50;5035163;28;20627;-47
2022/01/11 06:23:40;;;;;;;1.05;0.80;;;;;;;6.96;100.00;101953.22;5037079;28;20086;-50
2022/01/11 06:26:06;;;;;;;4.05;2.13;;;;;;;6.97;100.00;101960.19;5042078;28;20509;-51
2022/01/11 06:28:31;;;;;;;1.83;1.00;;;;;;;6.97;100.00;101966.28;5036989;28;20490;-51
2022/01/11 06:30:57;;;;;;;2.33;2.05;;;;;;;6.98;100.00;101965.31;5024946;28;20037;-52
2022/01/11 06:33:22;;;;;;;2.28;1.58;;;;;;;6.99;100.00;101971.41;5037754;28;20116;-47
2022/01/11 06:35:47;;;;;;;2.60;1.85;;;;;;;6.99;100.00;101971.41;5024355;28;20028;-50
2022/01/11 06:38:14;;;;;;;8.50;2.33;;;;;;;7.01;100.00;101972.13;5041234;28;20028;-51
2022/01/11 06:40:40;;;;;;;2.92;1.98;;;;;;;7.01;100.00;101977.41;5036714;28;20460;-51
2022/01/11 06:43:06;;;;;;;5.28;2.95;;;;;;;7.00;100.00;101970.47;5034707;28;20068;-50
2022/01/11 06:45:32;;;;;;;4.10;1.95;;;;;;;7.01;100.00;101963.38;5040687;28;20044;-50
2022/01/11 06:47:59;;;;;;;6.35;3.40;;;;;;;7.00;100.00;101965.19;5039482;28;20503;-55
2022/01/11 06:50:24;;;;;;;10.68;2.67;;;;;;;7.01;100.00;101971.31;5030929;28;20049;-54
2022/01/11 06:52:50;;;;;;;3.95;2.42;;;;;;;7.00;100.00;101975.75;5032275;28;20025;-50
2022/01/11 06:55:15;;;;;;;2.88;1.98;;;;;;;7.00;100.00;101970.47;5040928;28;20494;-53
2022/01/11 06:57:40;;;;;;;2.75;1.95;;;;;;;6.99;100.00;101977.53;5037168;28;20509;-54
2022/01/11 07:00:08;;;;;;;5.10;2.47;;;;;;;7.02;100.00;101981.69;5044847;28;20505;-52
2022/01/11 07:02:33;;;;;;;4.70;2.30;;;;;;;7.03;100.00;101983.38;5039158;28;20082;-51
2022/01/11 07:04:59;;;;;;;8.43;3.00;;;;;;;7.06;100.00;101995.47;5058440;28;20428;-52
2022/01/11 07:07:24;;;;;;;4.78;2.85;;;;;;;7.06;100.00;101996.31;5055422;28;20051;-52
2022/01/11 07:09:50;;;;;;;8.27;3.67;;;;;;;7.05;100.00;102002.56;5042505;28;20096;-55
2022/01/11 07:12:15;;;;;;;6.75;3.13;;;;;;;7.05;100.00;101994.66;5035674;28;20056;-50
2022/01/11 07:14:40;;;;;;;5.30;2.50;;;;;;;7.05;100.00;101997.28;5046612;28;20040;-50
2022/01/11 07:17:06;;;;;;;5.78;2.70;;;;;;;7.06;100.00;101998.94;5035435;28;20308;-54
2022/01/11 07:19:31;;;;;;;8.23;3.05;;;;;;;7.06;100.00;101998.13;5030871;28;20033;-50
2022/01/11 07:21:59;;;;;;;3.78;2.85;;;;;;;7.06;100.00;101996.31;5018394;28;20032;-53
2022/01/11 07:24:26;;;;;;;6.90;3.55;;;;;;;7.05;100.00;101999.06;5031910;28;20038;-54
2022/01/11 07:26:51;;;;;;;5.25;2.33;;;;;;;7.05;100.00;102010.47;5035234;28;20036;-49
2022/01/11 07:29:18;;;;;;;5.80;2.90;;;;;;;7.07;100.00;102007.69;5030952;28;20049;-49
2022/01/11 07:31:43;;;;;;;3.58;2.90;;;;;;;7.07;100.00;102019.06;5019433;28;20102;-53
2022/01/11 07:34:09;;;;;;;7.20;2.58;;;;;;;7.09;100.00;102025.06;5033390;28;20559;-52
2022/01/11 07:36:36;;;;;;;4.60;3.05;;;;;;;7.09;100.00;102030.31;5033128;28;20513;-51
2022/01/11 07:39:05;;;;;;;5.35;3.63;;;;;;;7.10;100.00;102044.34;5032590;28;20032;-50
2022/01/11 07:41:30;;;;;;;4.65;3.25;;;;;;;7.10;100.00;102044.34;5030382;28;20033;-52
2022/01/11 07:43:56;;;;;;;2.65;2.10;;;;;;;7.11;100.00;102036.31;5029893;28;20068;-50
2022/01/11 07:46:21;;;;;;;4.60;3.30;;;;;;;7.10;100.00;102044.34;5031114;28;20610;-51
2022/01/11 07:48:47;;;;;;;4.95;3.65;;;;;;;7.12;100.00;102053.81;5030794;28;20053;-54
2022/01/11 07:51:12;;;;;;;5.63;4.63;;;;;;;7.13;100.00;102050.22;5031165;28;20033;-51
2022/01/11 07:53:37;;;;;;;4.63;4.18;;;;;;;7.14;100.00;102058.97;5035470;28;20021;-51
2022/01/11 07:56:03;;;;;;;2.85;2.42;;;;;;;7.15;100.00;102057.97;5028805;28;20028;-53
2022/01/11 07:58:29;;;;;;;2.63;2.42;;;;;;;7.13;100.00;102052.84;5029790;28;20056;-55
2022/01/11 08:00:54;;;;;;;3.17;2.30;;;;;;;7.14;100.00;102056.31;5035480;28;20572;-53
2022/01/11 08:03:20;;;;;;;4.05;3.00;;;;;;;7.11;100.00;102049.50;5028883;28;20477;-55
2022/01/11 08:05:45;;;;;;;7.55;3.03;;;;;;;7.13;100.00;102055.50;5029353;28;20116;-49
2022/01/11 08:08:11;;;;;;;5.65;3.30;;;;;;;7.13;100.00;102066.03;5026954;28;20029;-48
2022/01/11 08:10:36;;;;;;;4.13;2.72;;;;;;;7.15;100.00;102061.47;5030200;28;20390;-51
2022/01/11 08:13:05;;;;;;;5.38;3.83;;;;;;;7.18;100.00;102070.94;5030911;28;20120;-54
2022/01/11 08:15:34;;;;;;;4.03;2.97;;;;;;;7.16;100.00;102073.69;5029164;28;20391;-54
2022/01/11 08:17:59;;;;;;;9.05;3.83;;;;;;;7.18;100.00;102079.69;5030572;28;20037;-53
2022/01/11 08:20:25;;;;;;;3.33;2.50;;;;;;;7.20;100.00;102076.91;5034227;28;20047;-50
2022/01/11 08:22:53;;;;;;;5.03;3.13;;;;;;;7.20;100.00;102084.81;5032626;28;20029;-53
2022/01/11 08:25:19;;;;;;;4.75;3.55;;;;;;;7.19;100.00;102091.91;5030365;28;20430;-53
2022/01/11 08:27:45;;;;;;;4.65;3.47;;;;;;;7.20;100.00;102093.59;5033615;28;20040;-48
2022/01/11 08:30:11;;;;;;;8.30;3.67;;;;;;;7.25;100.00;102100.25;5033828;28;20866;-51
2022/01/11 08:32:37;;;;;;;7.70;4.95;;;;;;;7.22;100.00;102102.19;5032949;28;20052;-51
2022/01/11 08:35:03;;;;;;;5.45;3.40;;;;;;;7.22;100.00;102104.00;5034767;28;21164;-54
2022/01/11 08:37:28;;;;;;;4.00;2.88;;;;;;;7.22;100.00;102107.47;5036700;28;20723;-50
2022/01/11 08:39:54;;;;;;;4.63;3.55;;;;;;;7.21;100.00;102105.81;5035946;28;20103;-51
2022/01/11 08:42:20;;;;;;;4.13;3.05;;;;;;;7.24;100.00;102101.25;5018321;28;20029;-53
2022/01/11 08:44:47;;;;;;;4.50;4.07;;;;;;;7.24;100.00;102109.97;5041194;28;20033;-50
2022/01/11 08:47:14;;;;;;;7.32;3.95;;;;;;;7.27;100.00;102111.53;5041533;28;20521;-53
2022/01/11 08:49:39;;;;;;;5.93;3.92;;;;;;;7.26;100.00;102113.34;5041785;28;20916;-50
2022/01/11 08:52:05;;;;;;;5.80;3.70;;;;;;;7.27;100.00;102109.72;5041203;28;20428;-51
2022/01/11 08:54:31;;;;;;;2.85;2.33;;;;;;;7.27;100.00;102114.16;5041298;28;20033;-54
2022/01/11 08:56:56;;;;;;;4.32;3.50;;;;;;;7.29;100.00;102113.06;5045454;28;20401;-52
2022/01/11 08:59:24;;;;;;;4.80;3.40;;;;;;;7.31;100.00;102115.59;5028498;28;20036;-49
2022/01/11 09:01:50;;;;;;;3.78;2.75;;;;;;;7.32;100.00;102111.97;5035202;28;20034;-51
2022/01/11 09:04:16;;;;;;;5.40;2.25;;;;;;;7.35;100.00;102122.25;5045130;28;20048;-51
2022/01/11 09:06:42;;;;;;;6.18;3.05;;;;;;;7.36;100.00;102122.16;5024624;28;20497;-53
2022/01/11 09:09:08;;;;;;;7.10;3.63;;;;;;;7.39;100.00;102129.78;5044682;28;20470;-48
2022/01/11 09:11:34;;;;;;;4.85;3.25;;;;;;;7.38;100.00;102127.28;5045656;28;20036;-51
2022/01/11 09:13:59;;;;;;;5.38;2.80;;;;;;;7.37;100.00;102130.91;5044013;28;20025;-52
2022/01/11 09:16:25;;;;;;;5.05;2.58;;;;;;;7.38;100.00;102138.69;5043920;28;20041;-50
2022/01/11 09:18:50;;;;;;;4.70;1.60;;;;;;;7.42;100.00;102132.16;5046256;28;20036;-49
2022/01/11 09:21:20;;;;;;;3.30;1.75;;;;;;;7.45;100.00;102138.16;5042335;28;20105;-53
2022/01/11 09:23:46;;;;;;;3.22;2.22;;;;;;;7.46;100.00;102147.75;5043402;28;20052;-50
2022/01/11 09:26:11;;;;;;;4.55;2.97;;;;;;;7.47;100.00;102144.97;5041487;28;20164;-52
2022/01/11 09:28:36;;;;;;;10.60;2.80;;;;;;;7.49;100.00;102148.34;5041541;28;20131;-52
2022/01/11 09:31:02;;;;;;;5.15;3.08;;;;;;;7.49;100.00;102160.69;5046217;28;20084;-52
2022/01/11 09:33:27;;;;;;;12.15;3.17;;;;;;;7.50;100.00;102167.66;5041708;28;20025;-50
2022/01/11 09:35:53;;;;;;;6.00;2.05;;;;;;;7.49;100.00;102161.53;5043140;28;20614;-51
2022/01/11 09:38:18;;;;;;;2.45;1.73;;;;;;;7.50;100.00;102165.84;5041667;28;20029;-49
2022/01/11 09:40:44;;;;;;;4.75;2.92;;;;;;;7.50;100.00;102168.47;5042926;28;20072;-50
2022/01/11 09:43:11;;;;;;;7.00;3.72;;;;;;;7.52;100.00;102173.63;5043298;28;20488;-50
2022/01/11 09:45:37;;;;;;;5.97;3.10;;;;;;;7.53;100.00;102173.50;5041051;28;20564;-53
2022/01/11 09:48:03;;;;;;;3.83;3.13;;;;;;;7.58;100.00;102173.09;5047214;28;20110;-51
2022/01/11 09:50:28;;;;;;;5.32;3.92;;;;;;;7.59;100.00;102175.63;5044666;28;20817;-53
2022/01/11 09:52:55;;;;;;;4.20;3.47;;;;;;;7.61;100.00;102181.59;5055632;28;20537;-53
2022/01/11 09:55:20;;;;;;;5.18;3.05;;;;;;;7.63;100.00;102182.31;5044936;28;20782;-52
2022/01/11 09:57:46;;;;;;;4.50;2.58;;;;;;;7.65;100.00;102177.75;5048347;28;20405;-49
2022/01/11 10:00:12;;;;;;;3.85;2.40;;;;;;;7.69;100.00;102170.38;5040764;28;20120;-53
2022/01/11 10:02:38;;;;;;;2.92;2.33;;;;;;;7.74;100.00;102181.38;5040433;28;20119;-54
2022/01/11 10:05:08;;;;;;;3.25;2.25;;;;;;;7.79;100.00;102184.47;5042668;28;20104;-53
2022/01/11 10:07:40;;;;;;;2.80;2.13;;;;;;;7.81;100.00;102194.91;5039909;28;20520;-50
2022/01/11 10:10:14;;;;;;;2.85;1.67;;;;;;;7.82;100.00;102194.78;5039291;28;20466;-51
2022/01/11 10:12:46;;;;;;;2.05;1.70;;;;;;;7.86;100.00;102201.47;5040252;28;20099;-53
2022/01/11 10:15:12;;;;;;;2.00;1.65;;;;;;;7.91;100.00;102198.44;5043680;28;20029;-54
2022/01/11 10:17:41;;;;;;;2.55;1.40;;;;;;;7.93;100.00;102204.44;5037602;28;20048;-53
2022/01/11 10:20:09;;;;;;;1.95;1.70;;;;;;;7.98;100.00;102206.69;5040374;28;20036;-51
2022/01/11 10:22:43;;;;;;;4.18;1.27;;;;;;;8.02;100.00;102208.91;5042408;28;20049;-50
2022/01/11 10:25:09;;;;;;;1.17;0.98;;;;;;;8.02;100.00;102197.50;5043506;28;20030;-49
2022/01/11 10:27:36;;;;;;;1.95;1.45;;;;;;;8.03;100.00;102207.97;5044473;28;20033;-55
2022/01/11 10:30:14;;;;;;;1.85;1.00;;;;;;;8.04;100.00;102209.63;5042015;28;20107;-53
2022/01/11 10:32:42;;;;;;;1.10;0.57;;;;;;;8.08;100.00;102205.75;5043447;28;20465;-53
2022/01/11 10:35:13;;;;;;;1.42;1.33;;;;;;;8.09;100.00;102215.34;5043496;28;20029;-53
2022/01/11 10:37:42;;;;;;;2.80;0.85;;;;;;;8.16;100.00;102214.81;5043883;28;20036;-55
2022/01/11 10:40:41;;;;;;;1.35;0.85;;;;;;;8.16;100.00;102213.03;5043487;28;20037;-50
2022/01/11 10:43:12;;;;;;;3.15;1.88;;;;;;;8.17;100.00;102217.34;4996482;28;20045;-48
2022/01/11 10:45:40;;;;;;;1.17;0.53;;;;;;;8.20;100.00;102218.88;5040175;28;20037;-53
2022/01/11 10:48:09;;;;;;;0.88;0.47;;;;;;;8.21;100.00;102216.09;5039890;28;20316;-53
2022/01/11 10:50:47;;;;;;;1.02;0.90;;;;;;;8.20;100.00;102219.69;5039598;28;20663;-48
2022/01/11 10:53:38;;;;;;;1.92;0.90;;;;;;;8.22;100.00;102216.94;5044349;28;20036;-55
2022/01/11 10:56:04;;;;;;;0.85;0.40;;;;;;;8.21;100.00;102215.25;5042503;28;20044;-51
2022/01/11 10:58:33;;;;;;;5.10;2.33;;;;;;;8.21;100.00;102225.81;5040916;28;20029;-52
2022/01/11 11:00:59;;;;;;;4.88;2.50;;;;;;;8.20;100.00;102224.16;5045443;28;20083;-51
2022/01/11 11:03:32;;;;;;;1.42;1.27;;;;;;;8.20;100.00;102227.63;5040231;28;20071;-50
2022/01/11 11:06:07;;;;;;;2.38;1.20;;;;;;;8.24;100.00;102225.56;5039632;28;20415;-51
2022/01/11 11:08:37;;;;;;;0.93;0.82;;;;;;;8.26;100.00;102234.19;5039220;28;20052;-50
2022/01/11 11:11:06;;;;;;;1.85;1.17;;;;;;;8.30;100.00;102230.31;5026209;28;20572;-51
2022/01/11 11:13:40;;;;;;;1.25;0.73;;;;;;;8.30;100.00;102230.31;5039362;28;20033;-51
2022/01/11 11:16:06;;;;;;;0.52;0.30;;;;;;;8.30;100.00;102227.69;5040280;28;20037;-52
2022/01/11 11:18:33;;;;;;;0.47;0.22;;;;;;;8.34;100.00;102228.22;5037660;28;20033;-50
2022/01/11 11:21:28;;;;;;;0.98;0.30;;;;;;;8.34;100.00;102221.16;5042399;28;20047;-49